Time;durP1;ratioP1;P1;durP2;ratioP2;P2;SDS_P1;SDS_P2;PMS_P1;PMS_P2;Temp;Humidity;BMP_temperature;BMP_pressure;BME280_temperature;BME280_humidity;BME280_pressure;Samples;Min_cycle;Max_cycle;Signal;HPM_P1;HPM_P2
2022/04/07 00:00:32;;;;;;;;;;;;;;;13.23;48.91;98456.53;4445063;32;19969;-77
2022/04/07 00:02:59;;;;;;;;;;;;;;;13.24;48.84;98458.25;4444974;32;19996;-77
2022/04/07 00:05:27;;;;;;;;;;;;;;;13.09;49.10;98459.38;4444924;32;19997;-78
2022/04/07 00:07:53;;;;;;;;;;;;;;;12.96;49.33;98450.91;4443494;32;19988;-79
2022/04/07 00:10:21;;;;;;;;;;;;;;;13.06;48.91;98445.59;4443388;32;19984;-78
2022/04/07 00:12:49;;;;;;;;;;;;;;;13.11;48.82;98441.16;4456468;32;19989;-83
2022/04/07 00:15:16;;;;;;;;;;;;;;;13.06;48.90;98437.78;4444686;32;20036;-76
2022/04/07 00:17:43;;;;;;;;;;;;;;;12.93;49.25;98437.97;4445720;32;19981;-77
2022/04/07 00:20:10;;;;;;;;;;;;;;;12.88;49.13;98424.19;4444807;32;19978;-76
2022/04/07 00:22:36;;;;;;;;;;;;;;;12.89;49.27;98425.94;4444366;32;20035;-76
2022/04/07 00:25:04;;;;;;;;;;;;;;;12.71;49.73;98431.41;4443388;32;19977;-77
2022/04/07 00:27:31;;;;;;;;;;;;;;;12.40;50.69;98421.47;4444291;32;20007;-77
2022/04/07 00:29:57;;;;;;;;;;;;;;;12.82;49.32;98424.28;4445125;32;20318;-76
2022/04/07 00:32:24;;;;;;;;;;;;;;;13.02;48.57;98421.41;4443320;32;19993;-77
2022/04/07 00:34:54;;;;;;;;;;;;;;;12.69;49.56;98415.00;4445079;32;20043;-77
2022/04/07 00:37:23;;;;;;;;;;;;;;;12.88;48.87;98408.63;4445279;32;20000;-76
2022/04/07 00:39:50;;;;;;;;;;;;;;;12.90;48.86;98406.00;4443583;32;19977;-79
2022/04/07 00:42:17;;;;;;;;;;;;;;;12.47;49.68;98397.12;4444872;32;20011;-78
2022/04/07 00:44:44;;;;;;;;;;;;;;;12.42;50.41;98396.38;4444618;32;19985;-77
2022/04/07 00:47:11;;;;;;;;;;;;;;;12.81;49.54;98396.62;4439527;32;20264;-78
2022/04/07 00:49:38;;;;;;;;;;;;;;;12.79;49.62;98398.38;4443703;32;20031;-78
2022/04/07 00:52:05;;;;;;;;;;;;;;;12.77;49.14;98390.63;4443315;32;20042;-77
2022/04/07 00:54:32;;;;;;;;;;;;;;;12.72;49.61;98381.19;4443655;32;19986;-76
2022/04/07 00:57:00;;;;;;;;;;;;;;;12.76;49.47;98388.03;4442805;32;19997;-76
2022/04/07 00:59:26;;;;;;;;;;;;;;;12.68;49.46;98382.12;4446692;32;20050;-77
2022/04/07 01:01:53;;;;;;;;;;;;;;;12.78;49.37;98375.91;4442460;32;20084;-77
2022/04/07 01:04:21;;;;;;;;;;;;;;;12.83;49.20;98381.88;4444152;32;19981;-76
2022/04/07 01:06:48;;;;;;;;;;;;;;;12.89;48.90;98384.38;4446872;32;19973;-77
2022/04/07 01:09:15;;;;;;;;;;;;;;;12.65;49.99;98384.78;4446126;32;19977;-79
2022/04/07 01:11:42;;;;;;;;;;;;;;;12.66;49.67;98381.28;4131572;32;10003930;-76
2022/04/07 01:14:10;;;;;;;;;;;;;;;12.65;49.66;98379.59;4415733;32;19993;-77
2022/04/07 01:16:37;;;;;;;;;;;;;;;12.63;49.85;98370.94;4431752;32;20466;-77
2022/04/07 01:19:05;;;;;;;;;;;;;;;12.73;49.81;98372.50;4416783;32;19997;-77
2022/04/07 01:21:32;;;;;;;;;;;;;;;12.65;49.95;98366.59;4431517;32;19970;-77
2022/04/07 01:23:58;;;;;;;;;;;;;;;12.68;50.18;98369.16;4430987;32;19973;-82
2022/04/07 01:26:25;;;;;;;;;;;;;;;12.58;50.21;98373.62;4431142;32;20068;-77
2022/04/07 01:28:52;;;;;;;;;;;;;;;12.41;50.70;98366.12;4417188;32;20275;-77
2022/04/07 01:31:19;;;;;;;;;;;;;;;12.55;50.47;98353.75;4429558;32;19965;-76
2022/04/07 01:33:46;;;;;;;;;;;;;;;12.49;50.12;98353.84;4431198;32;19996;-76
2022/04/07 01:36:13;;;;;;;;;;;;;;;12.47;50.18;98350.41;4417411;32;20035;-76
2022/04/07 01:38:40;;;;;;;;;;;;;;;12.47;49.79;98355.59;4415869;32;20388;-75
2022/04/07 01:41:07;;;;;;;;;;;;;;;12.49;49.63;98346.06;4430082;32;19981;-76
2022/04/07 01:43:34;;;;;;;;;;;;;;;12.73;49.64;98341.34;4420929;32;20039;-76
2022/04/07 01:46:01;;;;;;;;;;;;;;;12.49;50.09;98337.44;4421900;32;19997;-76
2022/04/07 01:48:28;;;;;;;;;;;;;;;12.55;49.54;98342.53;4431100;32;20000;-79
2022/04/07 01:50:55;;;;;;;;;;;;;;;12.36;50.15;98346.28;4417552;32;19970;-79
2022/04/07 01:53:23;;;;;;;;;;;;;;;12.50;50.13;98341.72;4430392;32;19986;-82
2022/04/07 01:55:49;;;;;;;;;;;;;;;12.55;49.92;98343.38;4411634;32;19986;-80
2022/04/07 01:58:16;;;;;;;;;;;;;;;12.70;49.41;98338.81;4415427;32;19981;-80
2022/04/07 02:00:44;;;;;;;;;;;;;;;12.50;50.29;98337.41;4447275;32;20029;-79
2022/04/07 02:03:11;;;;;;;;;;;;;;;12.54;49.67;98326.09;4444925;32;19992;-77
2022/04/07 02:05:38;;;;;;;;;;;;;;;12.63;49.64;98314.69;4447128;32;19997;-77
2022/04/07 02:08:05;;;;;;;;;;;;;;;12.49;50.47;98307.16;4452288;32;20034;-76
2022/04/07 02:10:32;;;;;;;;;;;;;;;12.63;49.83;98303.47;4459282;32;20547;-77
2022/04/07 02:12:58;;;;;;;;;;;;;;;12.65;49.61;98301.69;4447321;32;19997;-78
2022/04/07 02:15:26;;;;;;;;;;;;;;;12.54;50.16;98300.16;4462282;32;20029;-79
2022/04/07 02:17:53;;;;;;;;;;;;;;;12.60;49.94;98299.16;4460579;32;20026;-82
2022/04/07 02:20:20;;;;;;;;;;;;;;;12.61;49.42;98300.06;4119371;32;10000715;-80
2022/04/07 02:22:47;;;;;;;;;;;;;;;12.38;50.31;98283.12;4461800;32;19976;-78
2022/04/07 02:25:13;;;;;;;;;;;;;;;12.49;50.14;98276.00;4462271;32;19996;-77
2022/04/07 02:27:41;;;;;;;;;;;;;;;12.42;50.47;98269.22;4280171;32;5084484;-77
2022/04/07 02:30:09;;;;;;;;;;;;;;;12.48;50.66;98263.91;4453503;32;19980;-77
2022/04/07 02:32:36;;;;;;;;;;;;;;;12.61;50.25;98263.72;4462120;32;19977;-77
2022/04/07 02:35:03;;;;;;;;;;;;;;;12.48;50.01;98263.06;4462259;32;19993;-79
2022/04/07 02:37:30;;;;;;;;;;;;;;;12.52;50.06;98257.78;4462216;32;20041;-78
2022/04/07 02:39:55;;;;;;;;;;;;;;;12.43;50.49;98265.72;4460077;32;19993;-82
2022/04/07 02:42:23;;;;;;;;;;;;;;;12.63;50.05;98246.34;4461990;32;19976;-79
2022/04/07 02:44:50;;;;;;;;;;;;;;;12.64;49.95;98246.34;4462144;32;19985;-76
2022/04/07 02:47:17;;;;;;;;;;;;;;;12.67;49.63;98237.66;4461813;32;20042;-79
2022/04/07 02:49:45;;;;;;;;;;;;;;;12.68;49.56;98234.16;4462017;32;20527;-80
2022/04/07 02:52:12;;;;;;;;;;;;;;;12.27;50.79;98233.13;4460681;32;20528;-79
2022/04/07 02:54:39;;;;;;;;;;;;;;;12.31;50.82;98221.81;4447557;32;19989;-79
2022/04/07 02:57:06;;;;;;;;;;;;;;;12.42;50.62;98226.84;4461353;32;20034;-81
2022/04/07 02:59:33;;;;;;;;;;;;;;;12.40;50.41;98224.25;4461888;32;20372;-81
2022/04/07 03:02:00;;;;;;;;;;;;;;;12.39;50.56;98219.97;4462129;32;20273;-78
2022/04/07 03:04:27;;;;;;;;;;;;;;;12.46;50.33;98205.13;4461241;32;20349;-78
2022/04/07 03:06:54;;;;;;;;;;;;;;;12.41;50.49;98205.22;4461712;32;20000;-78
2022/04/07 03:09:21;;;;;;;;;;;;;;;12.55;50.46;98203.22;4457593;32;19981;-77
2022/04/07 03:11:48;;;;;;;;;;;;;;;12.44;50.41;98202.53;4462142;32;19977;-77
2022/04/07 03:14:15;;;;;;;;;;;;;;;12.30;50.68;98209.72;4461190;32;20034;-78
2022/04/07 03:16:48;;;;;;;;;;;;;;;12.24;50.90;98207.25;4461826;32;20347;-77
2022/04/07 03:19:16;;;;;;;;;;;;;;;12.28;50.84;98214.06;4447306;32;19993;-77
2022/04/07 03:21:43;;;;;;;;;;;;;;;12.32;50.84;98207.97;4456151;32;20040;-79
2022/04/07 03:24:12;;;;;;;;;;;;;;;12.32;50.69;98210.56;4461923;32;20008;-77
2022/04/07 03:27:00;;;;;;;;;;;;;;;12.38;50.33;98210.47;4462060;32;19977;-77
2022/04/07 03:29:28;;;;;;;;;;;;;;;12.26;50.71;98221.91;4461539;32;19985;-78
2022/04/07 03:31:55;;;;;;;;;;;;;;;12.26;50.72;98210.69;4447256;32;20067;-79
2022/04/07 03:34:22;;;;;;;;;;;;;;;12.38;50.41;98196.63;4461700;32;19981;-77
2022/04/07 03:36:48;;;;;;;;;;;;;;;12.52;49.60;98192.91;4461372;32;20340;-77
2022/04/07 03:39:15;;;;;;;;;;;;;;;12.59;49.36;98185.00;4459075;32;20037;-77
2022/04/07 03:41:42;;;;;;;;;;;;;;;12.48;49.43;98180.03;3836893;32;20002256;-78
2022/04/07 03:44:11;;;;;;;;;;;;;;;12.46;49.44;98174.84;4445493;32;20045;-78
2022/04/07 03:46:37;;;;;;;;;;;;;;;12.42;49.86;98174.94;4446346;32;19985;-78
2022/04/07 03:49:04;;;;;;;;;;;;;;;12.41;49.99;98168.00;4442910;32;20040;-79
2022/04/07 03:51:31;;;;;;;;;;;;;;;12.61;49.84;98167.66;4460433;32;20431;-78
2022/04/07 03:53:59;;;;;;;;;;;;;;;12.29;50.49;98164.78;4459734;32;20326;-77
2022/04/07 03:56:26;;;;;;;;;;;;;;;12.48;49.85;98160.09;4460835;32;20371;-77
2022/04/07 03:58:53;;;;;;;;;;;;;;;12.39;50.62;98165.47;4461479;32;19984;-79
2022/04/07 04:01:20;;;;;;;;;;;;;;;12.40;50.43;98159.38;4446920;32;20285;-78
2022/04/07 04:03:47;;;;;;;;;;;;;;;12.37;50.82;98156.84;4460597;32;20724;-81
2022/04/07 04:06:15;;;;;;;;;;;;;;;12.33;50.73;98155.19;4450711;32;20016;-79
2022/04/07 04:08:41;;;;;;;;;;;;;;;12.20;51.08;98151.13;4460162;32;19979;-79
2022/04/07 04:11:08;;;;;;;;;;;;;;;12.18;51.14;98150.28;4460335;32;20416;-77
2022/04/07 04:13:35;;;;;;;;;;;;;;;12.24;51.08;98150.16;4447114;32;19981;-77
2022/04/07 04:16:02;;;;;;;;;;;;;;;12.38;50.57;98148.19;4446025;32;20000;-78
2022/04/07 04:18:29;;;;;;;;;;;;;;;12.35;50.43;98137.88;4453242;32;20000;-80
2022/04/07 04:20:57;;;;;;;;;;;;;;;12.38;50.43;98143.00;4448290;32;20370;-77
2022/04/07 04:23:24;;;;;;;;;;;;;;;12.49;50.31;98146.25;4394084;32;1496631;-78
2022/04/07 04:25:51;;;;;;;;;;;;;;;12.44;50.29;98158.44;4408802;32;20000;-81
2022/04/07 04:28:18;;;;;;;;;;;;;;;12.08;51.62;98160.81;4443746;32;19977;-77
2022/04/07 04:30:45;;;;;;;;;;;;;;;12.30;51.00;98153.50;4439868;32;20615;-78
2022/04/07 04:33:12;;;;;;;;;;;;;;;12.31;51.00;98151.75;4444044;32;20274;-78
2022/04/07 04:35:39;;;;;;;;;;;;;;;12.40;51.05;98151.59;4277793;32;5001542;-77
2022/04/07 04:38:05;;;;;;;;;;;;;;;12.27;51.57;98150.13;4442935;32;20274;-74
2022/04/07 04:40:33;;;;;;;;;;;;;;;12.52;50.54;98145.34;4441109;32;20000;-75
2022/04/07 04:43:00;;;;;;;;;;;;;;;12.39;51.19;98143.84;4416130;32;20025;-76
2022/04/07 04:45:26;;;;;;;;;;;;;;;12.37;51.16;98151.66;4445640;32;19993;-75
2022/04/07 04:47:54;;;;;;;;;;;;;;;12.37;51.32;98138.69;4443643;32;19981;-75
2022/04/07 04:50:20;;;;;;;;;;;;;;;12.29;51.96;98151.81;4431677;32;20026;-75
2022/04/07 04:52:48;;;;;;;;;;;;;;;12.35;51.78;98148.25;4439632;32;19992;-74
2022/04/07 04:55:16;;;;;;;;;;;;;;;12.33;52.12;98150.00;4445785;32;19989;-75
2022/04/07 04:57:43;;;;;;;;;;;;;;;12.40;51.34;98150.75;4446986;32;19977;-73
2022/04/07 05:00:11;;;;;;;;;;;;;;;12.50;51.22;98153.12;4446120;32;20004;-73
2022/04/07 05:02:39;;;;;;;;;;;;;;;12.41;51.79;98158.53;4438839;32;20007;-74
2022/04/07 05:05:07;;;;;;;;;;;;;;;12.63;51.26;98164.13;4445567;32;20389;-73
2022/04/07 05:07:34;;;;;;;;;;;;;;;12.65;51.47;98156.34;4446490;32;20004;-74
2022/04/07 05:10:02;;;;;;;;;;;;;;;12.56;51.52;98155.59;4445576;32;20667;-74
2022/04/07 05:12:29;;;;;;;;;;;;;;;12.54;51.62;98154.81;4446782;32;19985;-74
2022/04/07 05:14:56;;;;;;;;;;;;;;;12.59;51.52;98146.06;4446581;32;20036;-75
2022/04/07 05:17:23;;;;;;;;;;;;;;;12.79;51.33;98150.00;4446228;32;20752;-82
2022/04/07 05:19:50;;;;;;;;;;;;;;;12.72;51.69;98163.97;4445371;32;19989;-78
2022/04/07 05:22:18;;;;;;;;;;;;;;;12.63;52.16;98153.75;4447164;32;20003;-80
2022/04/07 05:24:45;;;;;;;;;;;;;;;12.83;51.96;98155.09;4446517;32;20349;-78
2022/04/07 05:27:12;;;;;;;;;;;;;;;12.76;51.32;98159.56;4445196;32;20404;-75
2022/04/07 05:29:38;;;;;;;;;;;;;;;12.91;50.85;98161.84;4446545;32;20007;-75
2022/04/07 05:32:06;;;;;;;;;;;;;;;12.79;51.85;98162.09;4446714;32;20367;-76
2022/04/07 05:34:33;;;;;;;;;;;;;;;12.95;51.30;98166.09;4446845;32;19992;-75
2022/04/07 05:37:00;;;;;;;;;;;;;;;13.07;51.50;98169.34;4440077;32;19994;-75
2022/04/07 05:39:27;;;;;;;;;;;;;;;13.02;51.90;98175.50;4428158;32;20005;-78
2022/04/07 05:41:54;;;;;;;;;;;;;;;13.10;52.42;98174.47;4430388;32;19989;-74
2022/04/07 05:44:20;;;;;;;;;;;;;;;13.18;51.49;98185.56;4427969;32;19992;-74
2022/04/07 05:46:48;;;;;;;;;;;;;;;13.21;51.28;98182.91;4435801;32;19978;-75
2022/04/07 05:49:15;;;;;;;;;;;;;;;13.24;51.57;98193.19;4445099;32;20049;-75
2022/04/07 05:51:42;;;;;;;;;;;;;;;13.18;51.94;98201.16;4447326;32;19980;-75
2022/04/07 05:54:09;;;;;;;;;;;;;;;13.29;52.55;98199.19;4437695;32;19989;-74
2022/04/07 05:56:36;;;;;;;;;;;;;;;13.51;52.00;98198.75;4445965;32;19985;-75
2022/04/07 05:59:03;;;;;;;;;;;;;;;13.61;51.61;98208.03;4446394;32;20337;-74
2022/04/07 06:01:30;;;;;;;;;;;;;;;13.74;51.33;98206.88;4455686;32;20034;-76
2022/04/07 06:03:59;;;;;;;;;;;;;;;13.82;51.89;98206.72;4447665;32;19999;-75
2022/04/07 06:06:26;;;;;;;;;;;;;;;13.89;51.67;98209.13;4444649;32;19994;-76
2022/04/07 06:08:53;;;;;;;;;;;;;;;13.74;51.71;98209.47;4449151;32;19997;-83
2022/04/07 06:11:20;;;;;;;;;;;;;;;13.96;50.69;98205.47;4446295;32;20056;-75
2022/04/07 06:13:47;;;;;;;;;;;;;;;14.08;51.58;98208.69;4446603;32;19999;-77
2022/04/07 06:16:16;;;;;;;;;;;;;;;14.26;50.72;98208.22;4442610;32;19997;-75
2022/04/07 06:18:43;;;;;;;;;;;;;;;14.25;51.86;98211.72;4449019;32;20372;-76
2022/04/07 06:21:10;;;;;;;;;;;;;;;14.45;52.05;98207.75;4462273;32;20056;-78
2022/04/07 06:23:37;;;;;;;;;;;;;;;14.52;51.00;98215.41;4461570;32;20111;-76
2022/04/07 06:26:04;;;;;;;;;;;;;;;14.51;51.06;98229.31;4461044;32;19996;-76
2022/04/07 06:28:31;;;;;;;;;;;;;;;14.62;51.88;98226.44;4461521;32;20040;-77
2022/04/07 06:30:58;;;;;;;;;;;;;;;14.68;52.05;98226.28;4460722;32;20003;-82
2022/04/07 06:33:25;;;;;;;;;;;;;;;14.82;51.06;98229.34;4152499;32;10000545;-76
2022/04/07 06:35:51;;;;;;;;;;;;;;;14.91;50.50;98232.63;4459103;32;20389;-77
2022/04/07 06:38:18;;;;;;;;;;;;;;;14.95;50.11;98250.72;4458328;32;19949;-79
2022/04/07 06:40:46;;;;;;;;;;;;;;;15.01;50.16;98250.56;4462054;32;20031;-77
2022/04/07 06:43:13;;;;;;;;;;;;;;;15.10;49.98;98249.47;4445806;32;19988;-76
2022/04/07 06:45:40;;;;;;;;;;;;;;;15.27;49.62;98241.16;4460310;32;19984;-77
2022/04/07 06:48:07;;;;;;;;;;;;;;;15.33;48.90;98247.03;4461501;32;20350;-76
2022/04/07 06:50:34;;;;;;;;;;;;;;;15.25;49.07;98254.25;4446696;32;20435;-76
2022/04/07 06:53:01;;;;;;;;;;;;;;;15.46;48.29;98246.69;4460785;32;19972;-76
2022/04/07 06:55:29;;;;;;;;;;;;;;;15.52;47.14;98246.50;4461342;32;19995;-76
2022/04/07 06:57:56;;;;;;;;;;;;;;;15.37;47.80;98241.75;4460403;32;19981;-77
2022/04/07 07:00:24;;;;;;;;;;;;;;;15.47;47.38;98244.03;4461056;32;20067;-77
2022/04/07 07:02:52;;;;;;;;;;;;;;;15.43;47.81;98237.19;4431870;32;20469;-82
2022/04/07 07:05:20;;;;;;;;;;;;;;;15.54;48.04;98239.50;4437493;32;20029;-75
2022/04/07 07:07:47;;;;;;;;;;;;;;;15.61;48.19;98251.47;4453382;32;19979;-77
2022/04/07 07:10:22;;;;;;;;;;;;;;;15.72;47.50;98248.56;4449076;32;19997;-77
2022/04/07 07:12:49;;;;;;;;;;;;;;;15.77;47.41;98251.88;4418133;32;19993;-77
2022/04/07 07:15:16;;;;;;;;;;;;;;;15.72;47.26;98244.19;4444622;32;19977;-76
2022/04/07 07:17:43;;;;;;;;;;;;;;;15.85;47.31;98255.09;4445715;32;19977;-76
2022/04/07 07:20:11;;;;;;;;;;;;;;;15.94;47.52;98253.97;4445255;32;20010;-82
2022/04/07 07:22:38;;;;;;;;;;;;;;;15.98;47.47;98250.34;4430694;32;20323;-76
2022/04/07 07:25:05;;;;;;;;;;;;;;;16.18;44.90;98247.97;4430808;32;20007;-77
2022/04/07 07:27:39;;;;;;;;;;;;;;;16.22;44.69;98252.19;4441050;32;20018;-78
2022/04/07 07:30:09;;;;;;;;;;;;;;;16.06;45.02;98248.37;4429034;32;20363;-81
2022/04/07 07:32:36;;;;;;;;;;;;;;;16.13;44.66;98249.88;4421731;32;19981;-77
2022/04/07 07:35:04;;;;;;;;;;;;;;;16.20;44.63;98246.16;4429626;32;20441;-77
2022/04/07 07:37:31;;;;;;;;;;;;;;;16.25;43.62;98254.72;4431447;32;19995;-76
2022/04/07 07:40:05;;;;;;;;;;;;;;;16.37;43.37;98247.34;4431550;32;20338;-75
2022/04/07 07:42:32;;;;;;;;;;;;;;;16.30;43.95;98251.09;4431554;32;20289;-76
2022/04/07 07:44:59;;;;;;;;;;;;;;;16.44;43.35;98246.28;4430238;32;20034;-77
2022/04/07 07:47:26;;;;;;;;;;;;;;;16.51;42.36;98253.00;4440191;32;19990;-85
2022/04/07 07:49:54;;;;;;;;;;;;;;;16.31;43.37;98243.22;4446141;32;19997;-76
2022/04/07 07:52:20;;;;;;;;;;;;;;;16.35;42.95;98254.41;4443631;32;20011;-77
2022/04/07 07:54:47;;;;;;;;;;;;;;;16.44;43.06;98249.75;4444043;32;19981;-83
2022/04/07 07:57:15;;;;;;;;;;;;;;;16.61;43.09;98259.62;4445399;32;20027;-84
2022/04/07 07:59:41;;;;;;;;;;;;;;;16.58;43.35;98262.31;4445419;32;19990;-78
2022/04/07 08:02:08;;;;;;;;;;;;;;;16.69;42.89;98260.22;4445571;32;20063;-75
2022/04/07 08:04:41;;;;;;;;;;;;;;;16.82;43.62;98259.84;4438199;32;20342;-78
2022/04/07 08:07:08;;;;;;;;;;;;;;;16.90;43.41;98252.56;4436637;32;20041;-78
2022/04/07 08:09:34;;;;;;;;;;;;;;;16.85;43.39;98259.72;4445420;32;20559;-79
2022/04/07 08:12:02;;;;;;;;;;;;;;;16.56;45.06;98264.16;4446698;32;20003;-85
2022/04/07 08:14:30;;;;;;;;;;;;;;;16.88;44.50;98259.59;4446637;32;19986;-78
2022/04/07 08:16:57;;;;;;;;;;;;;;;16.89;44.21;98261.31;4446953;32;20004;-80
2022/04/07 08:19:24;;;;;;;;;;;;;;;16.85;44.04;98262.34;4445268;32;20036;-80
2022/04/07 08:21:51;;;;;;;;;;;;;;;16.75;44.24;98259.16;4446801;32;20016;-83
2022/04/07 08:24:20;;;;;;;;;;;;;;;16.72;44.63;98270.56;4447082;32;20030;-82
2022/04/07 08:26:47;;;;;;;;;;;;;;;16.90;43.64;98268.25;4445034;32;20037;-78
2022/04/07 08:29:14;;;;;;;;;;;;;;;16.93;43.95;98268.13;4432885;32;20126;-83
2022/04/07 08:31:40;;;;;;;;;;;;;;;16.96;44.15;98274.12;4440648;32;19981;-81
2022/04/07 08:34:08;;;;;;;;;;;;;;;16.99;44.14;98278.37;4446664;32;20408;-80
2022/04/07 08:36:35;;;;;;;;;;;;;;;16.95;44.10;98274.19;4447246;32;20028;-81
2022/04/07 08:39:02;;;;;;;;;;;;;;;17.25;44.36;98268.75;4447055;32;20048;-78
2022/04/07 08:41:34;;;;;;;;;;;;;;;17.05;44.03;98269.47;4432599;32;19977;-80
2022/04/07 08:44:01;;;;;;;;;;;;;;;16.91;44.68;98268.22;4433030;32;20332;-75
2022/04/07 08:46:30;;;;;;;;;;;;;;;16.92;44.40;98266.44;4446862;32;20498;-79
2022/04/07 08:48:59;;;;;;;;;;;;;;;17.01;44.45;98263.50;4446746;32;20003;-76
2022/04/07 08:51:26;;;;;;;;;;;;;;;17.05;44.24;98267.72;4446866;32;20056;-78
2022/04/07 08:53:53;;;;;;;;;;;;;;;16.95;44.10;98266.34;4445079;32;19997;-79
2022/04/07 08:56:20;;;;;;;;;;;;;;;17.11;43.94;98262.28;4432436;32;19982;-79
2022/04/07 08:58:47;;;;;;;;;;;;;;;16.86;45.81;98258.81;4435241;32;20306;-83
2022/04/07 09:01:14;;;;;;;;;;;;;;;16.79;45.81;98260.78;4445118;32;20001;-77
2022/04/07 09:03:42;;;;;;;;;;;;;;;16.73;45.79;98256.59;4444626;32;20060;-79
2022/04/07 09:06:09;;;;;;;;;;;;;;;16.96;44.98;98257.56;4440064;32;20035;-79
2022/04/07 09:08:38;;;;;;;;;;;;;;;17.19;44.56;98254.13;4417060;32;20532;-78
2022/04/07 09:11:06;;;;;;;;;;;;;;;17.18;44.42;98253.28;4428216;32;20007;-77
2022/04/07 09:13:39;;;;;;;;;;;;;;;17.48;43.38;98245.22;4442038;32;20005;-77
2022/04/07 09:16:07;;;;;;;;;;;;;;;17.63;42.40;98249.88;4430666;32;19985;-84
2022/04/07 09:18:37;;;;;;;;;;;;;;;17.86;39.30;98245.53;4446634;32;20365;-76
2022/04/07 09:21:04;;;;;;;;;;;;;;;17.74;40.01;98240.75;4432688;32;20803;-81
2022/04/07 09:23:38;;;;;;;;;;;;;;;17.99;38.97;98231.06;4445671;32;20037;-79
2022/04/07 09:26:05;;;;;;;;;;;;;;;17.96;40.23;98236.41;4440259;32;20035;-78
2022/04/07 09:28:34;;;;;;;;;;;;;;;17.62;42.70;98236.88;4432255;32;20033;-76
2022/04/07 09:31:01;;;;;;;;;;;;;;;17.57;43.47;98234.41;4442052;32;19992;-78
2022/04/07 09:33:34;;;;;;;;;;;;;;;17.62;43.82;98231.63;4447019;32;19985;-77
2022/04/07 09:36:05;;;;;;;;;;;;;;;17.72;42.75;98237.38;4446474;32;20012;-76
2022/04/07 09:38:32;;;;;;;;;;;;;;;17.89;42.32;98232.34;4446458;32;20338;-79
2022/04/07 09:41:06;;;;;;;;;;;;;;;18.07;41.32;98234.22;4447123;32;19988;-80
2022/04/07 09:43:43;;;;;;;;;;;;;;;18.00;41.74;98231.94;4443095;32;19997;-77
2022/04/07 09:46:11;;;;;;;;;;;;;;;17.97;41.50;98226.81;4429040;32;20027;-78
2022/04/07 09:48:38;;;;;;;;;;;;;;;17.91;41.99;98222.66;4424324;32;20001;-77
2022/04/07 09:51:06;;;;;;;;;;;;;;;17.61;44.00;98222.94;4414529;32;20035;-76
2022/04/07 09:53:37;;;;;;;;;;;;;;;17.67;45.00;98217.44;4433745;32;20004;-85
2022/04/07 09:56:07;;;;;;;;;;;;;;;18.06;42.92;98214.22;4404599;32;20000;-77
2022/04/07 09:58:34;;;;;;;;;;;;;;;18.23;43.09;98213.50;4415617;32;20071;-83
2022/04/07 10:01:02;;;;;;;;;;;;;;;18.39;43.18;98213.72;4421380;32;19985;-85
2022/04/07 10:03:30;;;;;;;;;;;;;;;18.36;43.48;98213.84;4415642;32;20000;-81
2022/04/07 10:05:58;;;;;;;;;;;;;;;18.82;38.37;98206.69;4400294;32;20316;-77
2022/04/07 10:08:25;;;;;;;;;;;;;;;19.08;38.39;98202.06;4428556;32;19979;-76
2022/04/07 10:10:53;;;;;;;;;;;;;;;19.01;39.30;98197.09;4415829;32;19999;-78
2022/04/07 10:13:20;;;;;;;;;;;;;;;19.16;38.36;98199.94;4419091;32;20761;-76
2022/04/07 10:15:50;;;;;;;;;;;;;;;19.18;37.76;98198.12;4430516;32;20028;-77
2022/04/07 10:18:30;;;;;;;;;;;;;;;18.87;38.22;98199.47;4400599;32;20012;-85
2022/04/07 10:20:57;;;;;;;;;;;;;;;18.76;39.36;98207.81;4445646;32;19988;-84
2022/04/07 10:23:27;;;;;;;;;;;;;;;19.56;37.84;98200.72;4462378;32;19981;-88
2022/04/07 10:25:54;;;;;;;;;;;;;;;19.58;36.33;98196.28;4461397;32;19993;-81
2022/04/07 10:28:21;;;;;;;;;;;;;;;19.61;35.59;98190.88;4448508;32;20052;-77
2022/04/07 10:30:49;;;;;;;;;;;;;;;19.71;36.03;98179.91;4447683;32;19980;-80
2022/04/07 10:33:32;;;;;;;;;;;;;;;19.74;35.41;98178.91;4461652;32;19965;-79
2022/04/07 10:36:00;;;;;;;;;;;;;;;20.01;34.10;98179.34;4447224;32;19969;-79
2022/04/07 10:38:37;;;;;;;;;;;;;;;19.72;35.82;98178.16;4447258;32;19981;-78
2022/04/07 10:41:04;;;;;;;;;;;;;;;19.86;34.75;98170.44;4461671;32;20022;-84
2022/04/07 10:43:31;;;;;;;;;;;;;;;19.91;35.04;98167.56;4461613;32;20029;-86
2022/04/07 10:46:01;;;;;;;;;;;;;;;20.00;33.70;98166.28;4454850;32;20413;-82
2022/04/07 10:48:32;;;;;;;;;;;;;;;20.21;32.80;98160.81;4451581;32;19976;-82
2022/04/07 10:50:59;;;;;;;;;;;;;;;20.08;34.34;98164.16;4426190;32;20006;-83
2022/04/07 10:53:27;;;;;;;;;;;;;;;20.24;32.69;98151.94;4440937;32;20011;-86
2022/04/07 10:55:55;;;;;;;;;;;;;;;20.29;36.26;98152.53;4425945;32;19977;-82
2022/04/07 10:58:36;;;;;;;;;;;;;;;20.56;32.44;98147.69;4431195;32;19986;-83
2022/04/07 11:01:03;;;;;;;;;;;;;;;20.57;32.92;98145.91;4430636;32;20003;-80
2022/04/07 11:03:30;;;;;;;;;;;;;;;20.72;32.18;98145.12;4447675;32;20326;-82
2022/04/07 11:06:00;;;;;;;;;;;;;;;20.90;29.97;98133.63;4451166;32;19991;-80
2022/04/07 11:08:30;;;;;;;;;;;;;;;20.59;31.93;98133.56;4446134;32;20012;-79
2022/04/07 11:10:57;;;;;;;;;;;;;;;20.99;29.90;98136.69;4431972;32;20060;-79
2022/04/07 11:13:43;;;;;;;;;;;;;;;21.09;30.51;98143.16;4444115;32;19980;-80
2022/04/07 11:16:14;;;;;;;;;;;;;;;21.03;30.76;98133.00;4447204;32;19977;-78
2022/04/07 11:18:44;;;;;;;;;;;;;;;21.23;31.15;98140.63;4447718;32;19989;-83
2022/04/07 11:21:11;;;;;;;;;;;;;;;21.43;29.20;98138.72;4461039;32;20040;-80
2022/04/07 11:23:39;;;;;;;;;;;;;;;21.31;31.41;98145.47;4461911;32;20391;-85
2022/04/07 11:26:08;;;;;;;;;;;;;;;21.49;29.61;98135.75;4447133;32;20356;-86
2022/04/07 11:28:37;;;;;;;;;;;;;;;21.76;29.10;98134.22;4449403;32;19973;-84
2022/04/07 11:31:04;;;;;;;;;;;;;;;21.63;29.07;98135.81;4461952;32;20025;-85
2022/04/07 11:33:38;;;;;;;;;;;;;;;21.55;30.00;98140.69;4461219;32;20007;-86
2022/04/07 11:36:12;;;;;;;;;;;;;;;21.66;30.96;98140.91;4454654;32;20690;-81
2022/04/07 11:38:42;;;;;;;;;;;;;;;21.75;29.48;98132.50;4445827;32;19997;-85
2022/04/07 11:41:14;;;;;;;;;;;;;;;21.97;29.45;98126.00;4451328;32;20717;-81
2022/04/07 11:43:48;;;;;;;;;;;;;;;22.05;30.76;98129.06;4444961;32;20484;-84
2022/04/07 11:46:24;;;;;;;;;;;;;;;22.11;28.91;98120.75;4430519;32;19977;-90
2022/04/07 11:49:12;;;;;;;;;;;;;;;22.04;28.58;98124.69;4110469;32;10004584;-84
2022/04/07 11:51:39;;;;;;;;;;;;;;;22.24;28.78;98124.44;4414437;32;19978;-85
2022/04/07 11:54:06;;;;;;;;;;;;;;;22.29;28.09;98122.34;4413189;32;19996;-81
2022/04/07 11:56:34;;;;;;;;;;;;;;;22.24;27.86;98113.88;4413466;32;19985;-79
2022/04/07 11:59:02;;;;;;;;;;;;;;;22.43;27.51;98124.19;4424319;32;19978;-86
2022/04/07 12:01:29;;;;;;;;;;;;;;;22.40;27.83;98107.69;4445883;32;19989;-89
2022/04/07 12:03:58;;;;;;;;;;;;;;;22.25;27.96;98109.47;4442577;32;19981;-84
2022/04/07 12:06:26;;;;;;;;;;;;;;;22.35;28.01;98107.12;4445914;32;20001;-81
2022/04/07 12:08:54;;;;;;;;;;;;;;;22.28;28.42;98104.84;4437254;32;20044;-86
2022/04/07 12:11:23;;;;;;;;;;;;;;;22.33;27.97;98093.19;4444339;32;19986;-79
2022/04/07 12:13:50;;;;;;;;;;;;;;;22.42;27.79;98084.72;4423936;32;20055;-86
2022/04/07 12:16:17;;;;;;;;;;;;;;;22.40;27.80;98083.94;4432998;32;20012;-84
2022/04/07 12:18:53;;;;;;;;;;;;;;;22.55;27.82;98084.81;4437003;32;19977;-84
2022/04/07 12:21:20;;;;;;;;;;;;;;;22.44;26.95;98085.47;4450541;32;19989;-82
2022/04/07 12:23:48;;;;;;;;;;;;;;;22.38;27.85;98083.22;4451310;32;20020;-88
2022/04/07 12:26:15;;;;;;;;;;;;;;;22.27;28.22;98086.47;4454836;32;19994;-82
2022/04/07 12:28:42;;;;;;;;;;;;;;;22.15;27.62;98081.94;4433582;32;19996;-83
2022/04/07 12:31:13;;;;;;;;;;;;;;;22.27;27.66;98087.34;4433533;32;20050;-84
2022/04/07 12:33:41;;;;;;;;;;;;;;;22.55;28.26;98080.37;4434156;32;20590;-82
2022/04/07 12:36:12;;;;;;;;;;;;;;;22.39;29.03;98079.63;4454754;32;20821;-83
2022/04/07 12:38:39;;;;;;;;;;;;;;;21.72;31.01;98080.00;4451367;32;19976;-80
2022/04/07 12:41:13;;;;;;;;;;;;;;;21.39;31.75;98077.50;4453606;32;20034;-84
2022/04/07 12:43:50;;;;;;;;;;;;;;;21.54;31.90;98079.28;4435071;32;20037;-81
2022/04/07 12:46:18;;;;;;;;;;;;;;;21.78;32.31;98084.06;4432097;32;20401;-84
2022/04/07 12:49:01;;;;;;;;;;;;;;;21.71;31.25;98080.94;4421326;32;19970;-87